sensor_id;sensor_type;location;lat;lon;timestamp;pressure;altitude;pressure_sealevel;temperature;humidity
64298;BME280;50639;53.270;7.956;2023-04-04T00:01:03;103220.88;;;0.84;70.43
64298;BME280;50639;53.270;7.956;2023-04-04T00:03:28;103227.19;;;0.80;70.83
64298;BME280;50639;53.270;7.956;2023-04-04T00:05:54;103229.81;;;0.80;70.61
64298;BME280;50639;53.270;7.956;2023-04-04T00:08:19;103217.81;;;0.74;69.76
64298;BME280;50639;53.270;7.956;2023-04-04T00:10:46;103220.50;;;0.72;70.61
64298;BME280;50639;53.270;7.956;2023-04-04T00:13:11;103217.06;;;0.70;71.30
64298;BME280;50639;53.270;7.956;2023-04-04T00:15:37;103218.09;;;0.68;71.22
64298;BME280;50639;53.270;7.956;2023-04-04T00:18:02;103217.34;;;0.64;71.33
64298;BME280;50639;53.270;7.956;2023-04-04T00:20:29;103214.94;;;0.60;71.83
64298;BME280;50639;53.270;7.956;2023-04-04T00:22:55;103210.78;;;0.54;71.75
64298;BME280;50639;53.270;7.956;2023-04-04T00:25:22;103208.25;;;0.53;70.78
64298;BME280;50639;53.270;7.956;2023-04-04T00:27:47;103208.44;;;0.48;71.16
64298;BME280;50639;53.270;7.956;2023-04-04T00:30:13;103212.19;;;0.43;70.23
64298;BME280;50639;53.270;7.956;2023-04-04T00:32:40;103212.38;;;0.38;69.97
64298;BME280;50639;53.270;7.956;2023-04-04T00:35:06;103207.28;;;0.35;70.11
64298;BME280;50639;53.270;7.956;2023-04-04T00:37:31;103206.53;;;0.31;70.68
64298;BME280;50639;53.270;7.956;2023-04-04T00:39:58;103200.47;;;0.29;70.36
64298;BME280;50639;53.270;7.956;2023-04-04T00:42:24;103199.84;;;0.24;70.98
64298;BME280;50639;53.270;7.956;2023-04-04T00:44:52;103204.41;;;0.19;71.02
64298;BME280;50639;53.270;7.956;2023-04-04T00:47:21;103197.72;;;0.12;70.64
64298;BME280;50639;53.270;7.956;2023-04-04T00:49:48;103195.88;;;0.14;70.40
64298;BME280;50639;53.270;7.956;2023-04-04T00:52:13;103197.66;;;0.14;71.00
64298;BME280;50639;53.270;7.956;2023-04-04T00:54:39;103190.16;;;0.05;71.47
64298;BME280;50639;53.270;7.956;2023-04-04T00:57:06;103183.19;;;0.04;71.59
64298;BME280;50639;53.270;7.956;2023-04-04T00:59:33;103194.44;;;0.07;71.52
64298;BME280;50639;53.270;7.956;2023-04-04T01:01:59;103190.09;;;0.06;71.26
64298;BME280;50639;53.270;7.956;2023-04-04T01:04:25;103184.00;;;0.06;71.47
64298;BME280;50639;53.270;7.956;2023-04-04T01:06:53;103177.13;;;0.02;71.36
64298;BME280;50639;53.270;7.956;2023-04-04T01:09:20;103174.59;;;0.00;71.48
64298;BME280;50639;53.270;7.956;2023-04-04T01:11:47;103166.09;;;-0.07;71.68
64298;BME280;50639;53.270;7.956;2023-04-04T01:14:13;103173.94;;;-0.05;71.32
64298;BME280;50639;53.270;7.956;2023-04-04T01:16:39;103170.50;;;-0.07;71.71
64298;BME280;50639;53.270;7.956;2023-04-04T01:19:09;103169.00;;;-0.13;71.56
64298;BME280;50639;53.270;7.956;2023-04-04T01:21:36;103169.09;;;-0.16;72.89
64298;BME280;50639;53.270;7.956;2023-04-04T01:24:03;103173.81;;;-0.24;72.50
64298;BME280;50639;53.270;7.956;2023-04-04T01:26:36;103172.97;;;-0.24;72.84
64298;BME280;50639;53.270;7.956;2023-04-04T01:29:03;103174.69;;;-0.23;72.25
64298;BME280;50639;53.270;7.956;2023-04-04T01:31:39;103171.09;;;-0.21;72.17
64298;BME280;50639;53.270;7.956;2023-04-04T01:37:10;103181.91;;;-0.28;71.77
64298;BME280;50639;53.270;7.956;2023-04-04T01:42:12;103169.00;;;-0.34;71.52
64298;BME280;50639;53.270;7.956;2023-04-04T01:44:40;103172.69;;;-0.39;71.34
64298;BME280;50639;53.270;7.956;2023-04-04T01:47:06;103167.38;;;-0.37;71.33
64298;BME280;50639;53.270;7.956;2023-04-04T01:49:33;103165.94;;;-0.44;71.08
64298;BME280;50639;53.270;7.956;2023-04-04T01:51:59;103168.56;;;-0.44;71.16
64298;BME280;50639;53.270;7.956;2023-04-04T01:54:25;103169.56;;;-0.48;72.14
64298;BME280;50639;53.270;7.956;2023-04-04T01:56:52;103165.94;;;-0.44;71.86
64298;BME280;50639;53.270;7.956;2023-04-04T01:59:18;103157.25;;;-0.46;72.25
64298;BME280;50639;53.270;7.956;2023-04-04T02:01:44;103152.91;;;-0.47;72.46
64298;BME280;50639;53.270;7.956;2023-04-04T02:04:09;103159.06;;;-0.48;72.69
64298;BME280;50639;53.270;7.956;2023-04-04T02:06:38;103156.63;;;-0.53;72.72
64298;BME280;50639;53.270;7.956;2023-04-04T02:09:04;103158.41;;;-0.53;72.69
64298;BME280;50639;53.270;7.956;2023-04-04T02:11:30;103160.59;;;-0.64;73.34
64298;BME280;50639;53.270;7.956;2023-04-04T02:13:57;103163.28;;;-0.66;73.36
64298;BME280;50639;53.270;7.956;2023-04-04T02:16:25;103160.59;;;-0.64;73.04
64298;BME280;50639;53.270;7.956;2023-04-04T02:18:50;103152.84;;;-0.67;73.26
64298;BME280;50639;53.270;7.956;2023-04-04T02:21:17;103157.84;;;-0.83;74.10
64298;BME280;50639;53.270;7.956;2023-04-04T02:23:42;103155.28;;;-0.85;74.27
64298;BME280;50639;53.270;7.956;2023-04-04T02:26:08;103156.09;;;-0.83;74.52
64298;BME280;50639;53.270;7.956;2023-04-04T02:28:35;103162.25;;;-0.84;74.88
64298;BME280;50639;53.270;7.956;2023-04-04T02:31:01;103152.50;;;-0.80;73.67
64298;BME280;50639;53.270;7.956;2023-04-04T02:33:27;103142.16;;;-0.85;74.08
64298;BME280;50639;53.270;7.956;2023-04-04T02:36:00;103152.72;;;-0.86;74.06
64298;BME280;50639;53.270;7.956;2023-04-04T02:38:27;103155.38;;;-0.88;74.00
64298;BME280;50639;53.270;7.956;2023-04-04T02:40:53;103152.00;;;-0.90;73.90
64298;BME280;50639;53.270;7.956;2023-04-04T02:43:19;103149.72;;;-0.99;73.87
64298;BME280;50639;53.270;7.956;2023-04-04T02:45:47;103149.72;;;-0.99;74.42
64298;BME280;50639;53.270;7.956;2023-04-04T02:48:20;103149.94;;;-1.05;74.17
64298;BME280;50639;53.270;7.956;2023-04-04T02:50:48;103140.50;;;-1.09;74.30
64298;BME280;50639;53.270;7.956;2023-04-04T02:53:14;103141.34;;;-1.08;74.23
64298;BME280;50639;53.270;7.956;2023-04-04T02:55:41;103146.69;;;-1.11;74.87
64298;BME280;50639;53.270;7.956;2023-04-04T02:58:07;103140.84;;;-1.18;74.23
64298;BME280;50639;53.270;7.956;2023-04-04T03:00:32;103135.59;;;-1.18;74.46
64298;BME280;50639;53.270;7.956;2023-04-04T03:02:58;103137.41;;;-1.20;74.80
64298;BME280;50639;53.270;7.956;2023-04-04T03:05:34;103138.38;;;-1.23;75.00
64298;BME280;50639;53.270;7.956;2023-04-04T03:08:00;103137.81;;;-1.31;75.58
64298;BME280;50639;53.270;7.956;2023-04-04T03:10:27;103129.38;;;-1.39;76.16
64298;BME280;50639;53.270;7.956;2023-04-04T03:12:57;103126.66;;;-1.36;75.17
64298;BME280;50639;53.270;7.956;2023-04-04T03:15:24;103119.69;;;-1.37;75.31
64298;BME280;50639;53.270;7.956;2023-04-04T03:17:51;103119.97;;;-1.44;75.61
64298;BME280;50639;53.270;7.956;2023-04-04T03:20:19;103114.75;;;-1.44;75.64
64298;BME280;50639;53.270;7.956;2023-04-04T03:22:44;103119.16;;;-1.46;75.21
64298;BME280;50639;53.270;7.956;2023-04-04T03:25:11;103102.63;;;-1.48;75.22
64298;BME280;50639;53.270;7.956;2023-04-04T03:27:36;103109.66;;;-1.49;75.24
64298;BME280;50639;53.270;7.956;2023-04-04T03:30:06;103108.94;;;-1.53;75.20
64298;BME280;50639;53.270;7.956;2023-04-04T03:32:32;103107.25;;;-1.55;75.51
64298;BME280;50639;53.270;7.956;2023-04-04T03:34:57;103103.78;;;-1.56;75.32
64298;BME280;50639;53.270;7.956;2023-04-04T03:37:23;103100.34;;;-1.58;75.62
64298;BME280;50639;53.270;7.956;2023-04-04T03:39:49;103110.75;;;-1.55;75.70
64298;BME280;50639;53.270;7.956;2023-04-04T03:42:14;103099.28;;;-1.52;75.73
64298;BME280;50639;53.270;7.956;2023-04-04T03:44:40;103105.25;;;-1.48;75.43
64298;BME280;50639;53.270;7.956;2023-04-04T03:47:09;103104.34;;;-1.47;75.23
64298;BME280;50639;53.270;7.956;2023-04-04T03:49:34;103105.22;;;-1.47;75.96
64298;BME280;50639;53.270;7.956;2023-04-04T03:52:00;103109.50;;;-1.44;75.89
64298;BME280;50639;53.270;7.956;2023-04-04T03:54:27;103106.97;;;-1.47;76.12
64298;BME280;50639;53.270;7.956;2023-04-04T03:56:54;103101.22;;;-1.57;76.21
64298;BME280;50639;53.270;7.956;2023-04-04T03:59:19;103109.25;;;-1.62;77.57
64298;BME280;50639;53.270;7.956;2023-04-04T04:01:46;103107.72;;;-1.67;78.13
64298;BME280;50639;53.270;7.956;2023-04-04T04:04:11;103105.69;;;-1.59;76.71
64298;BME280;50639;53.270;7.956;2023-04-04T04:06:38;103097.97;;;-1.64;77.09
64298;BME280;50639;53.270;7.956;2023-04-04T04:09:04;103103.97;;;-1.60;76.84
64298;BME280;50639;53.270;7.956;2023-04-04T04:11:29;103100.59;;;-1.64;76.90
64298;BME280;50639;53.270;7.956;2023-04-04T04:13:55;103104.97;;;-1.64;77.63
64298;BME280;50639;53.270;7.956;2023-04-04T04:16:21;103105.53;;;-1.79;77.57
64298;BME280;50639;53.270;7.956;2023-04-04T04:18:47;103110.03;;;-1.83;77.52
64298;BME280;50639;53.270;7.956;2023-04-04T04:21:20;103104.69;;;-1.80;77.48
64298;BME280;50639;53.270;7.956;2023-04-04T04:23:46;103116.53;;;-1.70;76.43
64298;BME280;50639;53.270;7.956;2023-04-04T04:26:11;103118.13;;;-1.66;76.84
64298;BME280;50639;53.270;7.956;2023-04-04T04:28:38;103112.97;;;-1.67;76.33
64298;BME280;50639;53.270;7.956;2023-04-04T04:31:09;103113.03;;;-1.69;76.71
64298;BME280;50639;53.270;7.956;2023-04-04T04:33:41;103106.06;;;-1.70;77.22
64298;BME280;50639;53.270;7.956;2023-04-04T04:36:07;103111.41;;;-1.73;77.23
64298;BME280;50639;53.270;7.956;2023-04-04T04:38:59;103118.06;;;-1.64;76.75
64298;BME280;50639;53.270;7.956;2023-04-04T04:41:27;103103.22;;;-1.64;77.04
64298;BME280;50639;53.270;7.956;2023-04-04T04:43:54;103106.78;;;-1.66;77.19
64298;BME280;50639;53.270;7.956;2023-04-04T04:46:23;103102.22;;;-1.60;76.85
64298;BME280;50639;53.270;7.956;2023-04-04T04:48:48;103098.88;;;-1.65;77.17
64298;BME280;50639;53.270;7.956;2023-04-04T04:51:15;103105.44;;;-1.53;76.41
64298;BME280;50639;53.270;7.956;2023-04-04T04:53:46;103110.13;;;-1.61;76.96
64298;BME280;50639;53.270;7.956;2023-04-04T04:56:11;103110.59;;;-1.75;77.85
64298;BME280;50639;53.270;7.956;2023-04-04T04:58:40;103105.53;;;-1.79;78.05
64298;BME280;50639;53.270;7.956;2023-04-04T05:01:08;103120.50;;;-1.83;78.31
64298;BME280;50639;53.270;7.956;2023-04-04T05:03:37;103119.13;;;-1.68;77.83
64298;BME280;50639;53.270;7.956;2023-04-04T05:06:06;103121.59;;;-1.65;77.64
64298;BME280;50639;53.270;7.956;2023-04-04T05:08:33;103114.78;;;-1.69;77.72
64298;BME280;50639;53.270;7.956;2023-04-04T05:11:04;103120.41;;;-1.80;78.77
64298;BME280;50639;53.270;7.956;2023-04-04T05:13:31;103117.59;;;-1.75;78.56
64298;BME280;50639;53.270;7.956;2023-04-04T05:15:56;103120.88;;;-1.69;77.61
64298;BME280;50639;53.270;7.956;2023-04-04T05:18:23;103124.97;;;-1.62;77.36
64298;BME280;50639;53.270;7.956;2023-04-04T05:20:50;103131.06;;;-1.61;77.24
64298;BME280;50639;53.270;7.956;2023-04-04T05:23:16;103123.94;;;-1.58;77.56
64298;BME280;50639;53.270;7.956;2023-04-04T05:25:42;103119.63;;;-1.59;76.83
64298;BME280;50639;53.270;7.956;2023-04-04T05:28:08;103123.09;;;-1.58;76.52
64298;BME280;50639;53.270;7.956;2023-04-04T05:30:36;103132.75;;;-1.59;76.13
64298;BME280;50639;53.270;7.956;2023-04-04T05:33:15;103136.19;;;-1.58;76.43
64298;BME280;50639;53.270;7.956;2023-04-04T05:35:47;103142.28;;;-1.58;76.70
64298;BME280;50639;53.270;7.956;2023-04-04T05:38:14;103134.97;;;-1.73;77.26
64298;BME280;50639;53.270;7.956;2023-04-04T05:40:40;103139.31;;;-1.72;77.62
64298;BME280;50639;53.270;7.956;2023-04-04T05:43:10;103135.47;;;-1.62;76.99
64298;BME280;50639;53.270;7.956;2023-04-04T05:45:55;103121.56;;;-1.64;77.08
64298;BME280;50639;53.270;7.956;2023-04-04T05:48:22;103127.28;;;-1.53;76.66
64298;BME280;50639;53.270;7.956;2023-04-04T05:50:51;103136.56;;;-1.44;76.92
64298;BME280;50639;53.270;7.956;2023-04-04T05:53:21;103127.41;;;-1.57;77.59
64298;BME280;50639;53.270;7.956;2023-04-04T05:55:52;103141.22;;;-1.52;77.79
64298;BME280;50639;53.270;7.956;2023-04-04T05:58:20;103129.03;;;-1.53;77.41
64298;BME280;50639;53.270;7.956;2023-04-04T06:00:52;103125.31;;;-1.47;77.15
64298;BME280;50639;53.270;7.956;2023-04-04T06:03:18;103134.56;;;-1.37;76.60
64298;BME280;50639;53.270;7.956;2023-04-04T06:05:49;103133.38;;;-1.29;76.45
64298;BME280;50639;53.270;7.956;2023-04-04T06:08:15;103128.69;;;-1.21;76.59
64298;BME280;50639;53.270;7.956;2023-04-04T06:10:41;103136.25;;;-1.13;76.24
64298;BME280;50639;53.270;7.956;2023-04-04T06:13:06;103143.06;;;-1.07;76.64
64298;BME280;50639;53.270;7.956;2023-04-04T06:15:32;103135.13;;;-1.06;76.27
64298;BME280;50639;53.270;7.956;2023-04-04T06:17:58;103145.03;;;-0.91;76.11
64298;BME280;50639;53.270;7.956;2023-04-04T06:20:26;103142.22;;;-0.86;76.00
64298;BME280;50639;53.270;7.956;2023-04-04T06:22:52;103145.22;;;-0.73;75.96
64298;BME280;50639;53.270;7.956;2023-04-04T06:25:18;103139.22;;;-0.77;75.67
64298;BME280;50639;53.270;7.956;2023-04-04T06:27:45;103135.88;;;-0.59;75.47
64298;BME280;50639;53.270;7.956;2023-04-04T06:30:10;103138.06;;;-0.48;75.17
64298;BME280;50639;53.270;7.956;2023-04-04T06:32:40;103136.72;;;-0.36;75.39
64298;BME280;50639;53.270;7.956;2023-04-04T06:35:07;103138.78;;;-0.23;75.41
64298;BME280;50639;53.270;7.956;2023-04-04T06:37:41;103142.72;;;-0.13;74.75
64298;BME280;50639;53.270;7.956;2023-04-04T06:40:12;103134.59;;;-0.07;74.84
64298;BME280;50639;53.270;7.956;2023-04-04T06:42:46;103134.34;;;-0.01;75.28
64298;BME280;50639;53.270;7.956;2023-04-04T06:45:12;103131.31;;;0.09;75.09
64298;BME280;50639;53.270;7.956;2023-04-04T06:47:37;103123.00;;;0.18;74.85
64298;BME280;50639;53.270;7.956;2023-04-04T06:50:04;103132.09;;;0.31;75.04
64298;BME280;50639;53.270;7.956;2023-04-04T06:52:30;103123.38;;;0.49;74.40
64298;BME280;50639;53.270;7.956;2023-04-04T06:54:55;103127.09;;;0.64;74.17
64298;BME280;50639;53.270;7.956;2023-04-04T06:57:21;103131.88;;;0.74;72.40
64298;BME280;50639;53.270;7.956;2023-04-04T06:59:47;103125.47;;;0.80;72.70
64298;BME280;50639;53.270;7.956;2023-04-04T07:02:12;103124.97;;;0.91;71.16
64298;BME280;50639;53.270;7.956;2023-04-04T07:04:37;103128.00;;;1.19;71.43
64298;BME280;50639;53.270;7.956;2023-04-04T07:07:04;103127.91;;;1.39;69.74
64298;BME280;50639;53.270;7.956;2023-04-04T07:09:29;103124.06;;;1.46;68.66
64298;BME280;50639;53.270;7.956;2023-04-04T07:11:55;103130.09;;;1.48;69.02
64298;BME280;50639;53.270;7.956;2023-04-04T07:14:21;103132.75;;;1.48;67.80
64298;BME280;50639;53.270;7.956;2023-04-04T07:16:49;103126.25;;;1.56;67.21
64298;BME280;50639;53.270;7.956;2023-04-04T07:19:15;103125.13;;;1.60;67.42
64298;BME280;50639;53.270;7.956;2023-04-04T07:21:41;103116.97;;;1.66;68.08
64298;BME280;50639;53.270;7.956;2023-04-04T07:24:07;103123.53;;;1.74;67.84
64298;BME280;50639;53.270;7.956;2023-04-04T07:26:33;103114.78;;;1.91;66.65
64298;BME280;50639;53.270;7.956;2023-04-04T07:28:59;103110.91;;;1.98;65.40
64298;BME280;50639;53.270;7.956;2023-04-04T07:31:25;103108.41;;;2.12;65.74
64298;BME280;50639;53.270;7.956;2023-04-04T07:33:51;103107.47;;;2.13;63.63
64298;BME280;50639;53.270;7.956;2023-04-04T07:36:18;103113.13;;;2.23;63.60
64298;BME280;50639;53.270;7.956;2023-04-04T07:38:43;103109.47;;;2.25;63.36
64298;BME280;50639;53.270;7.956;2023-04-04T07:41:09;103110.53;;;2.39;63.69
64298;BME280;50639;53.270;7.956;2023-04-04T07:43:36;103105.88;;;2.44;62.02
64298;BME280;50639;53.270;7.956;2023-04-04T07:46:02;103118.56;;;2.53;60.60
64298;BME280;50639;53.270;7.956;2023-04-04T07:48:28;103111.44;;;2.55;60.48
64298;BME280;50639;53.270;7.956;2023-04-04T07:50:53;103110.16;;;2.62;60.98
64298;BME280;50639;53.270;7.956;2023-04-04T07:53:19;103117.31;;;2.76;60.47
64298;BME280;50639;53.270;7.956;2023-04-04T07:55:44;103119.09;;;2.75;59.49
64298;BME280;50639;53.270;7.956;2023-04-04T07:58:10;103116.59;;;2.89;60.10
64298;BME280;50639;53.270;7.956;2023-04-04T08:00:36;103109.25;;;2.94;59.79
64298;BME280;50639;53.270;7.956;2023-04-04T08:03:01;103114.38;;;2.97;58.02
64298;BME280;50639;53.270;7.956;2023-04-04T08:05:27;103113.75;;;3.08;57.39
64298;BME280;50639;53.270;7.956;2023-04-04T08:07:53;103115.22;;;3.14;57.16
64298;BME280;50639;53.270;7.956;2023-04-04T08:10:18;103109.41;;;3.23;56.84
64298;BME280;50639;53.270;7.956;2023-04-04T08:12:46;103108.22;;;3.28;56.48
64298;BME280;50639;53.270;7.956;2023-04-04T08:15:12;103106.19;;;3.33;56.52
64298;BME280;50639;53.270;7.956;2023-04-04T08:17:38;103110.09;;;3.42;55.05
64298;BME280;50639;53.270;7.956;2023-04-04T08:20:03;103101.34;;;3.56;53.95
64298;BME280;50639;53.270;7.956;2023-04-04T08:22:29;103105.16;;;3.66;53.12
64298;BME280;50639;53.270;7.956;2023-04-04T08:24:55;103102.06;;;3.73;52.74
64298;BME280;50639;53.270;7.956;2023-04-04T08:27:21;103104.44;;;3.78;53.81
64298;BME280;50639;53.270;7.956;2023-04-04T08:29:46;103105.97;;;3.82;52.51
64298;BME280;50639;53.270;7.956;2023-04-04T08:32:13;103100.22;;;3.90;52.42
64298;BME280;50639;53.270;7.956;2023-04-04T08:34:39;103099.59;;;4.00;52.43
64298;BME280;50639;53.270;7.956;2023-04-04T08:37:06;103104.03;;;4.14;52.54
64298;BME280;50639;53.270;7.956;2023-04-04T08:39:31;103097.81;;;4.29;50.58
64298;BME280;50639;53.270;7.956;2023-04-04T08:42:02;103096.75;;;4.32;51.93
64298;BME280;50639;53.270;7.956;2023-04-04T08:44:31;103097.06;;;4.41;50.02
64298;BME280;50639;53.270;7.956;2023-04-04T08:47:02;103089.13;;;4.56;51.92
64298;BME280;50639;53.270;7.956;2023-04-04T08:49:32;103095.91;;;4.60;50.84
64298;BME280;50639;53.270;7.956;2023-04-04T08:51:58;103102.53;;;4.67;51.91
64298;BME280;50639;53.270;7.956;2023-04-04T08:54:27;103099.59;;;4.71;51.99
64298;BME280;50639;53.270;7.956;2023-04-04T08:56:54;103098.34;;;4.77;50.96
64298;BME280;50639;53.270;7.956;2023-04-04T08:59:20;103094.00;;;4.76;51.36
64298;BME280;50639;53.270;7.956;2023-04-04T09:01:46;103090.50;;;4.89;50.99
64298;BME280;50639;53.270;7.956;2023-04-04T09:04:11;103083.41;;;4.90;51.05
64298;BME280;50639;53.270;7.956;2023-04-04T09:06:37;103096.44;;;4.93;50.30
64298;BME280;50639;53.270;7.956;2023-04-04T09:09:03;103086.50;;;4.97;50.35
64298;BME280;50639;53.270;7.956;2023-04-04T09:11:32;103078.28;;;5.01;49.84
64298;BME280;50639;53.270;7.956;2023-04-04T09:13:59;103081.47;;;5.06;49.73
64298;BME280;50639;53.270;7.956;2023-04-04T09:16:26;103083.84;;;4.97;49.03
64298;BME280;50639;53.270;7.956;2023-04-04T09:18:52;103086.63;;;5.22;49.69
64298;BME280;50639;53.270;7.956;2023-04-04T09:21:18;103079.25;;;5.40;49.72
64298;BME280;50639;53.270;7.956;2023-04-04T09:23:44;103078.75;;;5.47;50.20
64298;BME280;50639;53.270;7.956;2023-04-04T09:26:10;103082.25;;;5.48;50.26
64298;BME280;50639;53.270;7.956;2023-04-04T09:28:37;103082.69;;;5.54;48.76
64298;BME280;50639;53.270;7.956;2023-04-04T09:31:07;103078.03;;;5.58;48.63
64298;BME280;50639;53.270;7.956;2023-04-04T09:33:34;103075.28;;;5.59;48.20
64298;BME280;50639;53.270;7.956;2023-04-04T09:36:06;103082.91;;;5.64;47.19
64298;BME280;50639;53.270;7.956;2023-04-04T09:38:36;103076.47;;;5.68;47.96
64298;BME280;50639;53.270;7.956;2023-04-04T09:41:06;103086.69;;;5.87;48.37
64298;BME280;50639;53.270;7.956;2023-04-04T09:43:32;103074.97;;;5.51;46.32
64298;BME280;50639;53.270;7.956;2023-04-04T09:45:59;103073.50;;;5.60;46.21
64298;BME280;50639;53.270;7.956;2023-04-04T09:48:30;103080.13;;;5.92;46.32
64298;BME280;50639;53.270;7.956;2023-04-04T09:50:57;103089.19;;;6.15;46.30
64298;BME280;50639;53.270;7.956;2023-04-04T09:53:23;103080.59;;;6.12;44.87
64298;BME280;50639;53.270;7.956;2023-04-04T09:55:50;103087.16;;;6.19;44.87
64298;BME280;50639;53.270;7.956;2023-04-04T09:58:26;103090.69;;;6.07;44.56
64298;BME280;50639;53.270;7.956;2023-04-04T10:00:54;103093.72;;;6.26;45.76
64298;BME280;50639;53.270;7.956;2023-04-04T10:03:22;103084.06;;;6.50;45.94
64298;BME280;50639;53.270;7.956;2023-04-04T10:05:53;103084.94;;;6.51;45.51
64298;BME280;50639;53.270;7.956;2023-04-04T10:08:22;103073.09;;;6.67;45.34
64298;BME280;50639;53.270;7.956;2023-04-04T10:10:49;103071.94;;;6.95;45.54
64298;BME280;50639;53.270;7.956;2023-04-04T10:13:22;103077.59;;;7.14;44.89
64298;BME280;50639;53.270;7.956;2023-04-04T10:15:48;103062.09;;;7.32;44.25
64298;BME280;50639;53.270;7.956;2023-04-04T10:18:14;103062.09;;;7.56;44.90
64298;BME280;50639;53.270;7.956;2023-04-04T10:20:41;103061.78;;;7.72;45.08
64298;BME280;50639;53.270;7.956;2023-04-04T10:23:07;103059.38;;;7.80;43.93
64298;BME280;50639;53.270;7.956;2023-04-04T10:25:33;103066.06;;;7.97;44.37
64298;BME280;50639;53.270;7.956;2023-04-04T10:28:01;103062.31;;;7.88;43.32
64298;BME280;50639;53.270;7.956;2023-04-04T10:30:27;103055.69;;;8.05;44.03
64298;BME280;50639;53.270;7.956;2023-04-04T10:33:00;103059.66;;;7.53;41.26
64298;BME280;50639;53.270;7.956;2023-04-04T10:35:31;103056.38;;;7.49;43.33
64298;BME280;50639;53.270;7.956;2023-04-04T10:37:58;103057.41;;;7.71;43.06
64298;BME280;50639;53.270;7.956;2023-04-04T10:40:30;103056.03;;;8.00;42.50
64298;BME280;50639;53.270;7.956;2023-04-04T10:43:01;103038.75;;;8.17;42.79
64298;BME280;50639;53.270;7.956;2023-04-04T10:45:28;103048.31;;;8.30;42.51
64298;BME280;50639;53.270;7.956;2023-04-04T10:47:55;103035.72;;;8.55;42.88
64298;BME280;50639;53.270;7.956;2023-04-04T10:50:21;103026.44;;;8.49;41.58
64298;BME280;50639;53.270;7.956;2023-04-04T10:52:47;103038.91;;;8.38;41.64
64298;BME280;50639;53.270;7.956;2023-04-04T10:55:14;103034.41;;;8.38;41.17
64298;BME280;50639;53.270;7.956;2023-04-04T10:57:46;103024.56;;;7.37;40.95
64298;BME280;50639;53.270;7.956;2023-04-04T11:00:14;103027.66;;;7.54;40.97
64298;BME280;50639;53.270;7.956;2023-04-04T11:05:32;103023.88;;;8.25;43.52
64298;BME280;50639;53.270;7.956;2023-04-04T11:08:03;103014.53;;;8.20;42.80
64298;BME280;50639;53.270;7.956;2023-04-04T11:10:31;103019.28;;;8.39;43.07
64298;BME280;50639;53.270;7.956;2023-04-04T11:13:00;103014.19;;;8.58;42.16
64298;BME280;50639;53.270;7.956;2023-04-04T11:15:55;103016.84;;;8.47;40.72
64298;BME280;50639;53.270;7.956;2023-04-04T11:21:09;103019.00;;;8.64;41.20
64298;BME280;50639;53.270;7.956;2023-04-04T11:26:17;103019.09;;;7.27;39.64
64298;BME280;50639;53.270;7.956;2023-04-04T11:28:44;103016.31;;;7.64;40.02
64298;BME280;50639;53.270;7.956;2023-04-04T11:39:29;103000.63;;;8.27;39.75
64298;BME280;50639;53.270;7.956;2023-04-04T11:42:00;102998.44;;;8.66;39.58
64298;BME280;50639;53.270;7.956;2023-04-04T11:44:30;102988.22;;;8.71;39.06
64298;BME280;50639;53.270;7.956;2023-04-04T11:49:39;102987.69;;;8.88;36.85
64298;BME280;50639;53.270;7.956;2023-04-04T11:52:06;102994.69;;;9.00;37.60
64298;BME280;50639;53.270;7.956;2023-04-04T11:54:33;102986.03;;;8.87;35.63
64298;BME280;50639;53.270;7.956;2023-04-04T11:56:59;102980.28;;;9.03;37.68
64298;BME280;50639;53.270;7.956;2023-04-04T11:59:24;102978.13;;;8.97;38.75
64298;BME280;50639;53.270;7.956;2023-04-04T12:01:50;102979.84;;;9.19;37.99
64298;BME280;50639;53.270;7.956;2023-04-04T12:04:18;102983.78;;;9.24;38.17
64298;BME280;50639;53.270;7.956;2023-04-04T12:06:54;102980.50;;;9.53;39.87
64298;BME280;50639;53.270;7.956;2023-04-04T12:09:22;102976.38;;;9.69;39.25
64298;BME280;50639;53.270;7.956;2023-04-04T12:11:50;102971.22;;;9.77;36.12
64298;BME280;50639;53.270;7.956;2023-04-04T12:14:20;102970.25;;;9.78;37.10
64298;BME280;50639;53.270;7.956;2023-04-04T12:16:48;102976.06;;;9.63;37.38
64298;BME280;50639;53.270;7.956;2023-04-04T12:19:15;102967.34;;;9.19;35.58
64298;BME280;50639;53.270;7.956;2023-04-04T12:21:41;102957.50;;;8.67;36.64
64298;BME280;50639;53.270;7.956;2023-04-04T12:24:07;102960.31;;;8.10;37.63
64298;BME280;50639;53.270;7.956;2023-04-04T12:26:38;102953.03;;;8.56;38.61
64298;BME280;50639;53.270;7.956;2023-04-04T12:29:06;102954.97;;;9.18;38.22
64298;BME280;50639;53.270;7.956;2023-04-04T12:31:32;102952.91;;;9.42;37.29
64298;BME280;50639;53.270;7.956;2023-04-04T12:33:58;102948.63;;;9.30;36.59
64298;BME280;50639;53.270;7.956;2023-04-04T12:36:30;102944.47;;;9.37;36.00
64298;BME280;50639;53.270;7.956;2023-04-04T12:39:04;102950.75;;;9.36;34.76
64298;BME280;50639;53.270;7.956;2023-04-04T12:41:32;102945.75;;;9.43;36.56
64298;BME280;50639;53.270;7.956;2023-04-04T12:44:05;102938.50;;;9.75;36.22
64298;BME280;50639;53.270;7.956;2023-04-04T12:46:37;102924.88;;;9.78;35.21
64298;BME280;50639;53.270;7.956;2023-04-04T12:49:09;102933.16;;;9.75;35.48
64298;BME280;50639;53.270;7.956;2023-04-04T12:51:36;102933.47;;;9.31;34.06
64298;BME280;50639;53.270;7.956;2023-04-04T12:54:05;102932.41;;;9.01;37.51
64298;BME280;50639;53.270;7.956;2023-04-04T12:56:31;102915.81;;;8.23;35.83
64298;BME280;50639;53.270;7.956;2023-04-04T12:59:01;102913.00;;;8.47;36.17
64298;BME280;50639;53.270;7.956;2023-04-04T13:01:30;102904.53;;;8.74;36.58
64298;BME280;50639;53.270;7.956;2023-04-04T13:04:00;102912.91;;;8.26;35.64
64298;BME280;50639;53.270;7.956;2023-04-04T13:06:27;102907.41;;;8.61;35.68
64298;BME280;50639;53.270;7.956;2023-04-04T13:08:54;102911.09;;;8.26;36.38
64298;BME280;50639;53.270;7.956;2023-04-04T13:11:20;102898.69;;;9.12;36.33
64298;BME280;50639;53.270;7.956;2023-04-04T13:13:46;102887.84;;;9.55;35.23
64298;BME280;50639;53.270;7.956;2023-04-04T13:16:13;102885.53;;;9.40;35.06
64298;BME280;50639;53.270;7.956;2023-04-04T13:18:53;102882.75;;;9.52;34.69
64298;BME280;50639;53.270;7.956;2023-04-04T13:21:18;102880.94;;;9.52;32.44